Time;durP1;ratioP1;P1;durP2;ratioP2;P2;SDS_P1;SDS_P2;PMS_P1;PMS_P2;Temp;Humidity;BMP_temperature;BMP_pressure;BME280_temperature;BME280_humidity;BME280_pressure;Samples;Min_cycle;Max_cycle;Signal;HPM_P1;HPM_P2
2022/08/14 00:00:56;;;;;;;5.40;4.90;;;15.60;69.60;;;;;;5012891;28;20558;-67
2022/08/14 00:03:25;;;;;;;6.33;5.73;;;15.60;70.00;;;;;;5012421;28;20453;-66
2022/08/14 00:05:56;;;;;;;7.10;4.70;;;15.50;70.30;;;;;;5013033;28;20855;-66
2022/08/14 00:08:24;;;;;;;5.97;5.37;;;15.40;70.70;;;;;;5013186;28;20465;-66
2022/08/14 00:10:57;;;;;;;11.07;5.83;;;15.40;71.20;;;;;;5013067;28;20435;-65
2022/08/14 00:13:27;;;;;;;7.10;5.03;;;15.40;71.30;;;;;;5013053;28;20968;-66
2022/08/14 00:15:56;;;;;;;5.53;4.77;;;15.30;71.00;;;;;;5013398;28;20489;-66
2022/08/14 00:18:26;;;;;;;7.13;5.40;;;15.20;71.20;;;;;;5013111;28;20439;-67
2022/08/14 00:20:55;;;;;;;6.07;5.47;;;15.20;72.20;;;;;;5008649;28;20557;-66
2022/08/14 00:23:22;;;;;;;5.80;4.90;;;15.10;71.60;;;;;;5013018;28;20439;-66
2022/08/14 00:25:52;;;;;;;6.53;5.33;;;15.10;71.70;;;;;;5012761;28;20447;-66
2022/08/14 00:28:25;;;;;;;6.23;5.63;;;15.00;72.00;;;;;;5012624;28;20488;-66
2022/08/14 00:30:56;;;;;;;10.83;5.67;;;15.00;72.10;;;;;;5012153;28;20447;-67
2022/08/14 00:33:24;;;;;;;7.40;6.07;;;15.00;72.80;;;;;;5012414;28;20478;-67
2022/08/14 00:35:52;;;;;;;5.87;5.27;;;15.10;73.30;;;;;;5007287;28;20483;-66
2022/08/14 00:38:21;;;;;;;5.50;4.70;;;15.10;73.40;;;;;;5011840;28;21241;-66
2022/08/14 00:40:48;;;;;;;6.83;5.93;;;15.10;73.20;;;;;;5012422;28;20745;-66
2022/08/14 00:43:16;;;;;;;6.47;5.07;;;15.10;73.50;;;;;;5011762;28;20497;-66
2022/08/14 00:45:43;;;;;;;10.23;5.20;;;15.00;73.30;;;;;;5012238;28;20478;-67
2022/08/14 00:48:11;;;;;;;6.57;5.87;;;14.90;74.50;;;;;;5012108;28;20482;-66
2022/08/14 00:50:39;;;;;;;6.23;5.60;;;14.90;75.10;;;;;;5012166;28;20450;-67
2022/08/14 00:53:06;;;;;;;7.17;5.73;;;14.90;75.40;;;;;;5012058;28;20439;-66
2022/08/14 00:55:40;;;;;;;6.03;5.43;;;14.90;74.60;;;;;;5012260;28;20490;-66
2022/08/14 00:58:30;;;;;;;6.13;5.53;;;14.80;74.30;;;;;;5007647;28;20442;-66
2022/08/14 01:01:00;;;;;;;8.03;5.60;;;14.70;74.40;;;;;;5010098;28;20435;-66
2022/08/14 01:03:29;;;;;;;6.70;5.70;;;14.70;75.00;;;;;;5008049;28;20439;-67
2022/08/14 01:05:58;;;;;;;6.37;4.90;;;14.60;75.20;;;;;;5011879;28;20447;-66
2022/08/14 01:08:28;;;;;;;7.47;5.60;;;14.50;75.60;;;;;;5007047;28;20890;-66
2022/08/14 01:10:57;;;;;;;6.63;5.30;;;14.50;75.50;;;;;;5011727;28;20882;-66
2022/08/14 01:13:27;;;;;;;8.40;6.40;;;14.50;75.80;;;;;;5011705;28;20925;-66
2022/08/14 01:15:57;;;;;;;7.53;5.97;;;14.40;75.80;;;;;;5011864;28;21017;-66
2022/08/14 01:21:15;;;;;;;6.67;6.00;;;14.30;76.20;;;;;;5011689;28;20426;-67
2022/08/14 01:23:47;;;;;;;8.10;5.40;;;14.30;76.90;;;;;;5010895;28;20850;-66
2022/08/14 01:26:19;;;;;;;6.73;5.97;;;14.10;76.30;;;;;;5011639;28;20478;-66
2022/08/14 01:28:47;;;;;;;7.07;5.50;;;14.00;77.60;;;;;;5011364;28;20893;-66
2022/08/14 01:31:17;;;;;;;7.47;6.73;;;13.90;78.00;;;;;;5011797;28;20501;-66
2022/08/14 01:33:47;;;;;;;6.80;6.10;;;13.80;77.90;;;;;;5008580;28;20905;-66
2022/08/14 01:36:16;;;;;;;8.57;5.90;;;13.70;78.30;;;;;;5010980;28;20490;-66
2022/08/14 01:38:47;;;;;;;5.40;4.90;;;13.70;78.50;;;;;;5010443;28;20450;-67
2022/08/14 01:41:16;;;;;;;5.20;4.53;;;13.60;78.50;;;;;;5013134;28;20477;-66
2022/08/14 01:43:47;;;;;;;8.70;6.00;;;13.70;78.70;;;;;;5012445;28;20450;-66
2022/08/14 01:46:15;;;;;;;6.33;5.50;;;13.60;79.70;;;;;;5012851;28;20475;-66
2022/08/14 01:48:44;;;;;;;4.90;4.40;;;13.60;79.70;;;;;;5012619;28;20522;-66
2022/08/14 01:51:12;;;;;;;5.47;4.40;;;13.60;78.90;;;;;;5012966;28;20438;-66
2022/08/14 01:53:42;;;;;;;7.87;5.13;;;13.60;78.90;;;;;;5010482;28;20454;-65
2022/08/14 01:56:11;;;;;;;4.90;4.40;;;13.60;79.30;;;;;;5012477;28;20486;-65
2022/08/14 01:58:38;;;;;;;5.77;4.90;;;13.60;79.20;;;;;;5012882;28;20447;-66
2022/08/14 02:01:05;;;;;;;5.20;4.70;;;13.60;78.50;;;;;;5012556;28;20453;-66
2022/08/14 02:03:39;;;;;;;6.57;5.90;;;13.50;79.00;;;;;;5012344;28;20500;-66
2022/08/14 02:06:08;;;;;;;6.03;5.30;;;13.50;79.80;;;;;;5013114;28;20507;-66
2022/08/14 02:08:36;;;;;;;5.30;4.80;;;13.50;79.80;;;;;;5012157;28;20443;-65
2022/08/14 02:11:21;;;;;;;5.80;4.67;;;13.50;80.30;;;;;;5012828;28;20434;-66
2022/08/14 02:13:53;;;;;;;6.97;6.17;;;13.40;81.00;;;;;;5011886;28;20438;-66
2022/08/14 02:16:24;;;;;;;5.40;4.90;;;13.40;80.90;;;;;;5012536;28;20594;-66
2022/08/14 02:18:53;;;;;;;5.10;4.50;;;13.40;80.50;;;;;;5012133;28;20435;-66
2022/08/14 02:21:20;;;;;;;6.40;5.00;;;13.40;80.40;;;;;;5012672;28;20291;-66
2022/08/14 02:23:49;;;;;;;6.13;4.80;;;13.30;81.00;;;;;;5012187;28;20505;-66
2022/08/14 02:26:19;;;;;;;6.77;5.43;;;13.30;81.40;;;;;;5011853;28;20449;-65
2022/08/14 02:28:51;;;;;;;6.77;4.30;;;13.40;81.10;;;;;;5012046;28;20968;-66
2022/08/14 02:31:18;;;;;;;5.67;4.57;;;13.30;80.70;;;;;;5008770;28;20435;-67
2022/08/14 02:33:46;;;;;;;8.20;5.50;;;13.30;81.20;;;;;;5012289;28;20443;-66
2022/08/14 02:36:14;;;;;;;6.85;4.93;;;13.30;81.10;;;;;;4992580;28;21092;-66
2022/08/14 02:38:42;;;;;;;6.47;5.30;;;13.30;81.20;;;;;;4992812;28;20243;-66
2022/08/14 02:41:11;;;;;;;11.02;6.18;;;13.30;81.30;;;;;;5008639;28;20192;-65
2022/08/14 02:43:40;;;;;;;5.83;5.33;;;13.30;81.10;;;;;;5012508;28;20204;-66
2022/08/14 02:46:11;;;;;;;6.80;4.82;;;13.30;80.70;;;;;;5011743;28;20844;-66
2022/08/14 02:48:44;;;;;;;5.53;4.93;;;13.30;80.90;;;;;;5012346;28;20196;-66
2022/08/14 02:51:13;;;;;;;5.90;4.50;;;13.30;80.70;;;;;;5011892;28;20467;-65
2022/08/14 02:53:43;;;;;;;6.13;4.90;;;13.20;80.20;;;;;;5011991;28;20925;-66
2022/08/14 02:56:14;;;;;;;6.85;5.90;;;13.20;80.60;;;;;;5011288;28;20478;-66
2022/08/14 02:58:45;;;;;;;4.82;4.28;;;13.20;80.10;;;;;;5012173;28;20262;-65
2022/08/14 03:01:15;;;;;;;6.20;5.07;;;13.10;80.90;;;;;;5011808;28;20500;-66
2022/08/14 03:03:43;;;;;;;5.83;4.67;;;13.10;80.70;;;;;;5012136;28;20483;-65
2022/08/14 03:06:12;;;;;;;5.03;4.53;;;13.10;80.70;;;;;;5011325;28;21023;-65
2022/08/14 03:08:40;;;;;;;7.87;5.00;;;13.10;81.00;;;;;;5012081;28;20210;-65
2022/08/14 03:11:09;;;;;;;6.50;5.00;;;13.00;81.30;;;;;;5011197;28;20439;-65
2022/08/14 03:13:41;;;;;;;5.63;5.03;;;13.00;82.00;;;;;;5012078;28;20446;-65
2022/08/14 03:16:13;;;;;;;5.65;5.10;;;12.90;81.90;;;;;;5011295;28;20482;-65
2022/08/14 03:18:44;;;;;;;5.97;4.90;;;12.80;82.20;;;;;;5012156;28;20203;-65
2022/08/14 03:21:14;;;;;;;4.95;4.40;;;12.90;84.50;;;;;;5011446;28;20489;-65
2022/08/14 03:23:42;;;;;;;5.73;4.40;;;12.90;86.00;;;;;;5011978;28;20192;-65
2022/08/14 03:26:14;;;;;;;6.28;5.65;;;12.90;85.50;;;;;;5014882;28;20442;-66
2022/08/14 03:28:43;;;;;;;10.57;5.40;;;13.00;85.10;;;;;;5015392;28;20192;-65
2022/08/14 03:31:11;;;;;;;11.45;5.85;;;13.00;83.90;;;;;;5014887;28;20458;-65
2022/08/14 03:33:43;;;;;;;11.02;4.50;;;13.00;83.30;;;;;;5015580;28;20200;-65
2022/08/14 03:36:15;;;;;;;6.07;5.30;;;13.00;83.00;;;;;;5015189;28;20604;-65
2022/08/14 03:38:43;;;;;;;6.30;5.20;;;13.00;83.00;;;;;;5015488;28;20191;-66
2022/08/14 03:41:13;;;;;;;5.65;5.05;;;13.00;83.10;;;;;;5014632;28;20443;-65
2022/08/14 03:43:40;;;;;;;5.47;4.93;;;13.00;83.40;;;;;;5015375;28;20203;-65
2022/08/14 03:46:12;;;;;;;5.23;4.70;;;13.00;83.20;;;;;;5014668;28;20318;-65
2022/08/14 03:48:40;;;;;;;4.68;4.18;;;13.00;82.10;;;;;;5015133;28;20473;-65
2022/08/14 03:51:11;;;;;;;6.23;4.70;;;13.00;82.20;;;;;;5014537;28;20184;-65
2022/08/14 03:53:41;;;;;;;5.87;5.13;;;13.00;82.70;;;;;;5015251;28;20466;-65
2022/08/14 03:56:12;;;;;;;5.43;4.68;;;13.00;82.90;;;;;;5014145;28;20442;-65
2022/08/14 03:58:44;;;;;;;5.63;5.00;;;13.00;82.80;;;;;;5014186;28;20188;-65
2022/08/14 04:01:11;;;;;;;5.23;4.00;;;13.00;82.80;;;;;;5015259;28;20790;-65
2022/08/14 04:03:38;;;;;;;4.90;4.30;;;12.90;82.10;;;;;;5015017;28;20474;-65
2022/08/14 04:06:09;;;;;;;5.40;4.53;;;12.80;81.50;;;;;;5015490;28;20443;-65
2022/08/14 04:08:37;;;;;;;6.45;4.38;;;12.70;81.90;;;;;;5014435;28;20639;-65
2022/08/14 04:11:06;;;;;;;6.10;5.50;;;12.70;82.30;;;;;;5015314;28;20258;-65
2022/08/14 04:13:35;;;;;;;5.82;5.10;;;12.70;82.90;;;;;;5014691;28;20188;-66
2022/08/14 04:16:03;;;;;;;8.60;5.10;;;12.80;83.20;;;;;;5015322;28;20604;-65
2022/08/14 04:18:32;;;;;;;8.15;5.22;;;12.80;83.20;;;;;;5014914;28;20286;-66
2022/08/14 04:21:00;;;;;;;5.97;5.15;;;12.80;83.30;;;;;;5015192;28;20607;-65
2022/08/14 04:23:29;;;;;;;6.63;5.88;;;12.80;83.10;;;;;;5014662;28;20658;-71
2022/08/14 04:25:57;;;;;;;5.63;5.10;;;12.70;83.20;;;;;;5014989;28;20565;-65
2022/08/14 04:28:25;;;;;;;5.80;5.20;;;12.70;83.50;;;;;;5014329;28;20195;-65
2022/08/14 04:30:52;;;;;;;4.68;4.10;;;12.80;83.80;;;;;;5014636;28;20188;-65
2022/08/14 04:33:19;;;;;;;7.50;4.97;;;12.80;84.00;;;;;;5014546;28;20642;-65
2022/08/14 04:35:51;;;;;;;5.88;4.70;;;12.80;83.60;;;;;;5014643;28;20454;-65
2022/08/14 04:43:52;;;;;;;6.53;4.93;;;12.60;84.10;;;;;;5014779;28;20206;-66
2022/08/14 04:46:22;;;;;;;4.60;4.20;;;12.50;84.40;;;;;;5014304;28;20744;-65
2022/08/14 04:48:49;;;;;;;6.45;4.65;;;12.50;85.20;;;;;;5013908;28;20643;-65
2022/08/14 04:51:19;;;;;;;5.07;4.43;;;12.60;85.40;;;;;;5014524;28;20195;-65
2022/08/14 04:53:48;;;;;;;7.20;5.53;;;12.60;85.70;;;;;;5014312;28;20214;-65
2022/08/14 04:56:21;;;;;;;7.20;5.17;;;12.70;86.20;;;;;;5014153;28;20223;-66
2022/08/14 04:58:49;;;;;;;7.77;5.07;;;12.80;86.40;;;;;;5013495;28;20443;-65
2022/08/14 05:01:16;;;;;;;5.60;5.00;;;12.90;86.50;;;;;;5014276;28;20449;-68
2022/08/14 05:03:44;;;;;;;7.57;6.10;;;13.00;86.60;;;;;;5013989;28;20471;-65
2022/08/14 05:06:12;;;;;;;10.30;5.90;;;13.10;86.70;;;;;;5014245;28;20505;-66
2022/08/14 05:08:42;;;;;;;40.97;8.07;;;13.20;86.90;;;;;;5013235;28;20238;-66
2022/08/14 05:11:10;;;;;;;6.57;4.97;;;13.20;86.90;;;;;;5013953;28;20431;-66
2022/08/14 05:13:39;;;;;;;6.72;4.90;;;13.30;86.50;;;;;;5013807;28;20454;-65
2022/08/14 05:16:07;;;;;;;10.75;5.05;;;13.40;86.90;;;;;;5014247;28;20296;-66
2022/08/14 05:18:37;;;;;;;6.10;3.97;;;13.40;86.40;;;;;;5013483;28;20223;-66
2022/08/14 05:21:07;;;;;;;5.23;4.73;;;13.40;86.70;;;;;;5013848;28;20439;-66
2022/08/14 05:23:36;;;;;;;5.27;4.77;;;13.40;87.30;;;;;;5013323;28;20461;-66
2022/08/14 05:26:04;;;;;;;5.40;4.90;;;13.50;87.20;;;;;;5013776;28;20442;-67
2022/08/14 05:28:34;;;;;;;5.30;4.80;;;13.60;86.70;;;;;;5012996;28;20431;-66
2022/08/14 05:31:06;;;;;;;7.23;4.60;;;13.60;86.50;;;;;;5013995;28;20794;-66
2022/08/14 05:33:34;;;;;;;8.60;5.20;;;13.70;86.50;;;;;;5013296;28;20443;-66
2022/08/14 05:36:05;;;;;;;6.17;5.00;;;13.80;85.80;;;;;;5014230;28;20438;-65
2022/08/14 05:38:35;;;;;;;5.13;4.38;;;13.80;86.70;;;;;;5012980;28;20565;-66
2022/08/14 05:41:05;;;;;;;4.97;4.50;;;13.90;88.30;;;;;;5013379;28;20184;-65
2022/08/14 05:43:33;;;;;;;6.10;5.47;;;14.00;88.80;;;;;;5012972;28;20937;-66
2022/08/14 05:46:02;;;;;;;6.00;5.00;;;14.10;89.00;;;;;;5013576;28;20481;-66
2022/08/14 05:48:30;;;;;;;7.13;5.37;;;14.10;88.60;;;;;;5012227;28;20933;-66
2022/08/14 05:50:57;;;;;;;6.70;5.23;;;14.20;88.50;;;;;;5012913;28;20512;-66
2022/08/14 05:53:26;;;;;;;5.77;5.03;;;14.40;88.60;;;;;;5011755;28;20485;-65
2022/08/14 05:55:55;;;;;;;5.73;5.13;;;14.50;88.40;;;;;;5013344;28;20435;-66
2022/08/14 05:58:23;;;;;;;5.63;5.13;;;14.60;87.50;;;;;;5013387;28;20486;-67
2022/08/14 06:00:51;;;;;;;7.43;6.10;;;14.70;86.70;;;;;;5012997;28;20438;-66
2022/08/14 06:03:22;;;;;;;6.63;6.03;;;14.80;86.70;;;;;;5012133;28;20443;-66
2022/08/14 06:05:54;;;;;;;6.37;5.53;;;14.90;87.10;;;;;;5013241;28;20526;-65
2022/08/14 06:08:23;;;;;;;10.23;5.87;;;15.10;87.10;;;;;;5012846;28;20831;-65
2022/08/14 06:10:51;;;;;;;7.60;5.80;;;15.10;87.00;;;;;;5013105;28;20791;-66
2022/08/14 06:13:19;;;;;;;6.33;5.60;;;15.20;87.40;;;;;;5012149;28;20988;-66
2022/08/14 06:15:47;;;;;;;6.30;5.20;;;15.40;87.40;;;;;;5013011;28;20489;-66
2022/08/14 06:18:19;;;;;;;9.10;5.83;;;15.50;88.10;;;;;;5012513;28;20487;-66
2022/08/14 06:20:47;;;;;;;5.90;4.83;;;15.70;87.30;;;;;;5013400;28;20496;-66
2022/08/14 06:23:14;;;;;;;6.70;5.40;;;15.80;87.90;;;;;;5010760;28;20466;-70
2022/08/14 06:25:43;;;;;;;5.90;4.97;;;15.90;87.60;;;;;;5013080;28;20442;-66
2022/08/14 06:28:16;;;;;;;9.30;6.10;;;16.10;87.60;;;;;;5012432;28;20439;-66
2022/08/14 06:30:44;;;;;;;5.90;5.30;;;16.20;87.60;;;;;;5012804;28;20443;-66
2022/08/14 06:33:11;;;;;;;5.50;4.87;;;16.30;87.20;;;;;;5012475;28;20443;-66
2022/08/14 06:35:40;;;;;;;7.23;5.40;;;16.50;86.20;;;;;;5012810;28;20438;-66
2022/08/14 06:38:08;;;;;;;6.57;5.70;;;16.70;86.50;;;;;;5012093;28;20474;-66
2022/08/14 06:40:37;;;;;;;11.30;5.73;;;16.80;86.60;;;;;;5006397;28;20446;-66
2022/08/14 06:43:05;;;;;;;6.77;5.47;;;17.00;86.20;;;;;;5010983;28;20960;-66
2022/08/14 06:45:34;;;;;;;6.80;5.33;;;17.20;85.90;;;;;;5010673;28;20498;-67
2022/08/14 06:48:01;;;;;;;5.03;4.50;;;17.30;86.00;;;;;;5006932;28;20473;-66
2022/08/14 06:50:30;;;;;;;6.50;5.00;;;17.50;86.20;;;;;;5011165;28;20454;-66
2022/08/14 06:52:59;;;;;;;8.20;4.90;;;17.70;85.60;;;;;;5010847;28;20992;-66
2022/08/14 06:55:27;;;;;;;5.33;4.83;;;17.80;84.80;;;;;;5010589;28;20445;-66
2022/08/14 06:57:54;;;;;;;6.00;5.27;;;18.00;83.40;;;;;;5010976;28;20857;-66
2022/08/14 07:00:24;;;;;;;5.43;4.87;;;18.10;82.50;;;;;;5015257;28;20450;-66
2022/08/14 07:05:47;;;;;;;5.40;4.10;;;18.50;82.90;;;;;;5013236;28;20421;-66
2022/08/14 07:08:17;;;;;;;6.80;3.50;;;18.60;82.10;;;;;;5014859;28;20444;-66
2022/08/14 07:10:45;;;;;;;6.90;4.63;;;18.80;82.00;;;;;;5014446;28;20434;-66
2022/08/14 07:13:16;;;;;;;7.60;4.30;;;19.00;82.90;;;;;;5014434;28;20471;-66
2022/08/14 07:15:45;;;;;;;7.90;7.10;;;19.20;82.50;;;;;;5011172;28;20438;-66
2022/08/14 07:18:13;;;;;;;7.93;4.47;;;19.40;81.60;;;;;;5013157;28;20530;-66
2022/08/14 07:20:43;;;;;;;4.53;3.50;;;19.50;81.10;;;;;;5013477;28;20513;-66
2022/08/14 07:23:13;;;;;;;4.67;4.00;;;19.70;80.80;;;;;;5014180;28;20441;-66
2022/08/14 07:25:44;;;;;;;5.17;4.53;;;19.80;80.00;;;;;;5014130;28;20470;-66
2022/08/14 07:28:13;;;;;;;4.07;3.00;;;20.00;79.80;;;;;;5011851;28;20441;-67
2022/08/14 07:30:41;;;;;;;4.30;3.90;;;20.20;79.20;;;;;;5013179;28;20525;-67
2022/08/14 07:33:10;;;;;;;4.30;3.40;;;20.40;78.80;;;;;;5013952;28;20436;-66
2022/08/14 07:35:38;;;;;;;3.90;3.40;;;20.50;78.30;;;;;;5013412;28;20449;-67
2022/08/14 07:38:06;;;;;;;4.80;3.93;;;20.70;77.80;;;;;;5012444;28;20516;-67
2022/08/14 07:40:34;;;;;;;4.20;3.57;;;20.90;77.60;;;;;;5013765;28;20464;-67
2022/08/14 07:43:02;;;;;;;5.63;3.90;;;21.00;76.20;;;;;;5014245;28;20494;-66
2022/08/14 07:45:30;;;;;;;6.10;4.87;;;21.20;76.70;;;;;;5013543;28;20434;-66
2022/08/14 07:47:57;;;;;;;6.63;4.30;;;21.30;76.50;;;;;;5009667;28;20786;-68
2022/08/14 07:50:24;;;;;;;4.60;4.10;;;21.60;76.20;;;;;;5013719;28;20436;-67
2022/08/14 07:52:52;;;;;;;4.30;3.60;;;21.70;74.50;;;;;;5014095;28;20449;-66
2022/08/14 07:55:19;;;;;;;4.23;3.73;;;21.90;72.00;;;;;;5013125;28;20446;-66
2022/08/14 07:57:47;;;;;;;6.70;3.13;;;22.00;71.50;;;;;;5012936;28;20547;-66
2022/08/14 08:00:18;;;;;;;4.17;3.67;;;22.20;71.80;;;;;;5013443;28;20983;-66
2022/08/14 08:02:47;;;;;;;3.90;3.50;;;22.30;71.30;;;;;;5013738;28;20449;-67
2022/08/14 08:05:15;;;;;;;3.63;3.07;;;22.50;71.50;;;;;;5012769;28;20446;-68
2022/08/14 08:07:44;;;;;;;6.13;3.70;;;22.70;71.70;;;;;;5013619;28;20439;-67
2022/08/14 08:10:31;;;;;;;3.97;3.03;;;22.90;71.30;;;;;;5012542;28;20447;-67
2022/08/14 08:13:01;;;;;;;4.87;3.20;;;23.10;70.30;;;;;;5013724;28;20446;-67
2022/08/14 08:15:33;;;;;;;5.50;3.37;;;23.30;69.70;;;;;;5012839;28;20453;-67
2022/08/14 08:18:01;;;;;;;4.10;3.20;;;23.40;67.90;;;;;;5013183;28;20556;-66
2022/08/14 08:20:29;;;;;;;5.50;3.40;;;23.50;67.00;;;;;;5013403;28;20447;-66
2022/08/14 08:22:58;;;;;;;3.87;2.93;;;23.70;66.10;;;;;;5013448;28;20896;-67
2022/08/14 08:25:26;;;;;;;3.67;3.20;;;23.80;64.50;;;;;;5012019;28;20525;-67
2022/08/14 08:27:59;;;;;;;4.03;2.97;;;23.90;64.70;;;;;;5013258;28;20442;-66
2022/08/14 08:30:27;;;;;;;6.30;3.80;;;24.10;65.60;;;;;;5013047;28;20843;-67
2022/08/14 08:33:00;;;;;;;4.10;3.57;;;24.30;66.50;;;;;;5012862;28;20920;-67
2022/08/14 08:35:29;;;;;;;3.80;3.17;;;24.50;65.80;;;;;;5012486;28;20956;-66
2022/08/14 08:38:03;;;;;;;4.63;3.07;;;24.70;65.60;;;;;;5013436;28;20489;-66
2022/08/14 08:40:35;;;;;;;3.70;3.30;;;24.90;65.20;;;;;;5006035;28;20442;-67
2022/08/14 08:43:03;;;;;;;3.53;3.03;;;25.10;64.40;;;;;;5010167;28;20481;-66
2022/08/14 08:45:30;;;;;;;3.70;3.03;;;25.30;62.50;;;;;;5012798;28;20471;-66
2022/08/14 08:47:59;;;;;;;7.33;3.13;;;25.40;62.00;;;;;;5011706;28;20471;-65
2022/08/14 08:50:33;;;;;;;4.87;3.60;;;25.60;60.30;;;;;;5013097;28;20470;-67
2022/08/14 08:53:02;;;;;;;5.80;3.67;;;25.80;60.20;;;;;;5011645;28;20442;-66
2022/08/14 08:55:37;;;;;;;6.07;3.30;;;26.00;59.70;;;;;;5008872;28;20435;-67
2022/08/14 08:58:05;;;;;;;3.37;3.07;;;26.10;58.40;;;;;;5009361;28;20478;-66
2022/08/14 09:00:34;;;;;;;3.53;2.83;;;26.30;58.10;;;;;;5011518;28;20443;-66
2022/08/14 09:03:06;;;;;;;4.50;3.23;;;26.50;58.00;;;;;;5011970;28;20525;-66
2022/08/14 09:05:35;;;;;;;4.57;3.50;;;26.60;57.50;;;;;;5012637;28;20438;-66
2022/08/14 09:08:14;;;;;;;5.47;2.20;;;26.80;57.30;;;;;;5010238;28;20658;-66
2022/08/14 09:10:47;;;;;;;2.63;2.07;;;27.00;52.30;;;;;;5012242;28;20435;-66
2022/08/14 09:13:24;;;;;;;3.73;2.17;;;27.10;49.80;;;;;;5010544;28;20439;-70
2022/08/14 09:15:53;;;;;;;3.00;2.13;;;27.20;49.10;;;;;;5012523;28;20538;-66
2022/08/14 09:18:25;;;;;;;3.83;2.10;;;27.40;49.00;;;;;;5011880;28;20509;-68
2022/08/14 09:20:57;;;;;;;3.17;2.10;;;27.50;48.40;;;;;;5008756;28;20508;-66
2022/08/14 09:23:29;;;;;;;2.70;2.10;;;27.60;49.80;;;;;;5010776;28;20504;-66
2022/08/14 09:25:59;;;;;;;2.73;2.00;;;27.80;47.90;;;;;;5011859;28;20438;-67
2022/08/14 09:28:26;;;;;;;3.10;2.27;;;28.00;46.40;;;;;;5011222;28;20988;-67
2022/08/14 09:30:56;;;;;;;3.47;2.73;;;28.10;46.60;;;;;;5012145;28;20945;-67
2022/08/14 09:33:38;;;;;;;2.63;2.17;;;28.20;45.10;;;;;;5005518;28;20917;-69
2022/08/14 09:36:44;;;;;;;3.57;2.70;;;28.40;46.40;;;;;;5010795;28;20917;-67
2022/08/14 09:39:23;;;;;;;2.77;2.20;;;28.50;46.60;;;;;;5010217;28;20497;-66
2022/08/14 09:42:16;;;;;;;3.50;2.07;;;28.60;45.10;;;;;;5010944;28;20438;-66
2022/08/14 09:44:57;;;;;;;6.23;2.30;;;28.80;43.20;;;;;;5009937;28;20434;-67
2022/08/14 09:47:43;;;;;;;4.17;2.33;;;29.00;43.70;;;;;;5007339;28;20513;-66
2022/08/14 09:50:21;;;;;;;3.47;2.23;;;29.10;42.10;;;;;;5011375;28;20447;-67
2022/08/14 09:52:52;;;;;;;6.83;1.97;;;29.20;41.50;;;;;;5003436;28;20435;-67
2022/08/14 09:55:20;;;;;;;2.53;2.03;;;29.30;42.00;;;;;;5017416;28;20435;-66
2022/08/14 09:57:48;;;;;;;3.43;2.70;;;29.40;43.10;;;;;;5011949;28;20479;-67
2022/08/14 10:00:18;;;;;;;2.60;2.10;;;29.50;41.00;;;;;;5015242;28;20529;-67
2022/08/14 10:03:01;;;;;;;3.30;1.93;;;29.60;41.60;;;;;;5017001;28;20439;-67
2022/08/14 10:05:33;;;;;;;3.10;2.07;;;29.80;39.90;;;;;;5018010;28;20450;-67
2022/08/14 10:08:01;;;;;;;3.03;2.40;;;29.90;40.30;;;;;;5010879;28;20451;-68
2022/08/14 10:10:35;;;;;;;3.00;2.00;;;29.90;40.00;;;;;;5013455;28;20801;-67
2022/08/14 10:13:07;;;;;;;2.77;2.07;;;30.00;39.50;;;;;;5014376;28;20442;-67
2022/08/14 10:15:44;;;;;;;6.63;2.07;;;30.10;39.40;;;;;;5018298;28;20511;-67
2022/08/14 10:18:15;;;;;;;2.70;2.07;;;30.20;39.60;;;;;;5013443;28;20544;-67
2022/08/14 10:20:56;;;;;;;3.33;1.80;;;30.30;40.30;;;;;;5017992;28;20524;-67
2022/08/14 10:23:25;;;;;;;5.37;1.70;;;30.40;37.20;;;;;;5011771;28;20446;-67
2022/08/14 10:26:03;;;;;;;3.90;1.77;;;30.50;38.00;;;;;;5012927;28;20817;-69
2022/08/14 10:28:41;;;;;;;2.50;1.70;;;30.60;36.60;;;;;;5008599;28;20529;-66
2022/08/14 10:31:18;;;;;;;3.57;1.90;;;30.60;38.20;;;;;;5014991;28;20800;-67
2022/08/14 10:33:59;;;;;;;2.50;1.93;;;30.70;37.50;;;;;;5014365;28;20474;-66
2022/08/14 10:36:32;;;;;;;3.60;2.10;;;30.70;35.00;;;;;;5015024;28;20450;-68
2022/08/14 10:39:01;;;;;;;2.47;1.60;;;30.70;36.50;;;;;;5015382;28;20490;-68
2022/08/14 10:41:38;;;;;;;2.50;2.10;;;30.80;35.90;;;;;;5015407;28;20513;-67
2022/08/14 10:44:09;;;;;;;5.23;2.40;;;30.90;36.50;;;;;;5018002;28;20784;-67
2022/08/14 10:46:44;;;;;;;2.80;2.00;;;31.00;35.60;;;;;;5012554;28;20481;-67
2022/08/14 10:49:20;;;;;;;4.57;2.17;;;31.10;34.90;;;;;;5018095;28;21101;-66
2022/08/14 10:52:07;;;;;;;5.03;2.10;;;31.20;35.90;;;;;;5011528;28;20458;-67
2022/08/14 10:54:40;;;;;;;3.67;2.00;;;31.40;34.00;;;;;;5012559;28;20478;-71
2022/08/14 10:57:17;;;;;;;3.37;2.40;;;31.40;34.10;;;;;;5017366;28;20433;-67
2022/08/14 10:59:50;;;;;;;5.60;2.47;;;31.40;33.70;;;;;;5012147;28;20612;-68
2022/08/14 11:02:30;;;;;;;3.07;1.70;;;31.50;33.60;;;;;;5013672;28;20438;-67
2022/08/14 11:04:59;;;;;;;3.00;2.20;;;31.50;33.30;;;;;;5013679;28;20457;-66
2022/08/14 11:07:28;;;;;;;2.60;1.97;;;31.60;31.60;;;;;;5013137;28;20446;-68
2022/08/14 11:09:57;;;;;;;4.10;1.70;;;31.60;30.60;;;;;;5017404;28;20437;-66
2022/08/14 11:12:25;;;;;;;4.20;2.10;;;31.60;32.40;;;;;;5015529;28;20442;-67
2022/08/14 11:14:54;;;;;;;2.50;1.70;;;31.70;32.50;;;;;;5015308;28;20491;-67
2022/08/14 11:17:37;;;;;;;2.43;1.30;;;31.70;32.20;;;;;;5013309;28;20485;-66
2022/08/14 11:20:12;;;;;;;2.20;1.53;;;31.90;32.40;;;;;;5016587;28;20488;-68
2022/08/14 11:22:41;;;;;;;2.40;1.70;;;32.00;29.80;;;;;;5015249;28;20446;-67
2022/08/14 11:25:12;;;;;;;5.20;1.97;;;32.00;30.20;;;;;;5015827;28;20489;-67
2022/08/14 11:27:44;;;;;;;3.30;1.97;;;32.10;30.40;;;;;;5014404;28;20450;-66
2022/08/14 11:30:14;;;;;;;2.40;1.70;;;32.10;30.00;;;;;;5016704;28;20505;-67
2022/08/14 11:32:45;;;;;;;2.90;2.00;;;32.10;28.30;;;;;;5012520;28;20512;-69
2022/08/14 11:35:14;;;;;;;4.40;1.80;;;32.10;29.30;;;;;;5016635;28;20825;-67
2022/08/14 11:37:52;;;;;;;2.77;1.70;;;32.20;29.90;;;;;;5014257;28;20441;-67
2022/08/14 11:40:20;;;;;;;2.50;1.77;;;32.20;30.00;;;;;;5012881;28;20518;-69
2022/08/14 11:42:48;;;;;;;3.00;1.80;;;32.30;29.10;;;;;;5013574;28;20451;-66
2022/08/14 11:45:16;;;;;;;2.80;1.60;;;32.30;29.00;;;;;;5017379;28;20437;-66
2022/08/14 11:47:44;;;;;;;2.63;1.57;;;32.40;29.90;;;;;;5010507;28;20509;-67
2022/08/14 11:50:23;;;;;;;2.57;1.90;;;32.50;29.00;;;;;;5015362;28;20438;-67
2022/08/14 11:52:54;;;;;;;5.53;1.90;;;32.50;29.20;;;;;;5012388;28;20438;-68
2022/08/14 11:55:21;;;;;;;5.03;1.97;;;32.70;27.30;;;;;;5013264;28;20541;-66
2022/08/14 11:58:00;;;;;;;2.83;1.70;;;32.60;25.20;;;;;;5016084;28;20865;-66
2022/08/14 12:00:27;;;;;;;4.10;1.90;;;32.70;26.80;;;;;;5017951;28;20485;-67
2022/08/14 12:02:56;;;;;;;3.03;1.97;;;32.70;26.60;;;;;;5015660;28;20446;-67
2022/08/14 12:05:31;;;;;;;7.73;2.70;;;32.80;27.20;;;;;;5018048;28;20440;-67
2022/08/14 12:08:01;;;;;;;2.73;1.80;;;32.80;25.70;;;;;;5015259;28;20438;-67
2022/08/14 12:10:30;;;;;;;3.40;2.40;;;32.90;26.60;;;;;;5018453;28;20920;-67
2022/08/14 12:12:57;;;;;;;3.67;2.50;;;32.90;26.10;;;;;;5006684;28;20451;-67
2022/08/14 12:15:33;;;;;;;2.70;2.07;;;33.00;24.70;;;;;;5011678;28;20810;-66
2022/08/14 12:18:01;;;;;;;2.50;1.80;;;32.90;24.60;;;;;;5019547;28;20438;-67
2022/08/14 12:20:35;;;;;;;5.10;1.83;;;32.80;25.00;;;;;;5017901;28;20486;-67
2022/08/14 12:23:05;;;;;;;3.73;2.03;;;32.80;25.90;;;;;;5012954;28;20943;-67
2022/08/14 12:25:34;;;;;;;2.80;2.10;;;32.80;25.00;;;;;;5015600;28;20438;-67
2022/08/14 12:28:12;;;;;;;3.27;1.80;;;32.80;24.80;;;;;;5019088;28;20496;-67
2022/08/14 12:30:47;;;;;;;2.87;2.30;;;32.90;25.20;;;;;;5011963;28;20439;-67
2022/08/14 12:33:25;;;;;;;3.10;2.07;;;32.90;26.30;;;;;;5016500;28;20454;-67
2022/08/14 12:35:54;;;;;;;3.03;1.80;;;32.90;26.20;;;;;;5012754;28;20537;-66
2022/08/14 12:38:33;;;;;;;2.70;1.70;;;33.00;26.20;;;;;;5015490;28;20434;-67
2022/08/14 12:41:01;;;;;;;2.70;1.97;;;33.00;26.50;;;;;;5010336;28;20446;-67
2022/08/14 12:43:29;;;;;;;2.60;2.20;;;33.10;26.70;;;;;;5016063;28;20513;-64
2022/08/14 12:45:57;;;;;;;3.47;2.10;;;33.10;26.20;;;;;;5015143;28;20465;-64
2022/08/14 12:48:27;;;;;;;3.67;1.83;;;33.10;25.90;;;;;;5019775;28;20446;-65
2022/08/14 12:50:54;;;;;;;4.00;2.10;;;33.10;26.60;;;;;;5015351;28;20942;-64
2022/08/14 12:53:35;;;;;;;3.07;1.90;;;33.20;26.00;;;;;;5015917;28;20450;-66
2022/08/14 12:56:07;;;;;;;2.63;1.90;;;33.20;26.60;;;;;;5017452;28;20435;-65
2022/08/14 12:58:36;;;;;;;2.60;1.90;;;33.20;26.00;;;;;;5018270;28;20866;-64
2022/08/14 13:01:07;;;;;;;3.03;1.83;;;33.20;26.10;;;;;;5017668;28;20491;-64
2022/08/14 13:03:36;;;;;;;2.60;1.90;;;33.20;24.80;;;;;;5013887;28;20459;-64
2022/08/14 13:06:03;;;;;;;4.37;2.17;;;33.30;24.70;;;;;;5017855;28;20533;-65
2022/08/14 13:08:33;;;;;;;2.73;1.97;;;33.30;25.30;;;;;;5015037;28;20445;-64
2022/08/14 13:11:05;;;;;;;3.03;2.33;;;33.20;25.10;;;;;;5012754;28;20439;-64
2022/08/14 13:13:34;;;;;;;3.50;1.83;;;33.20;26.00;;;;;;5015308;28;20948;-65